createdAt,value
2023-04-21T00:01:26.441Z,100330.81
2023-04-21T00:03:53.518Z,100332.69
2023-04-21T00:06:23.119Z,100332.78
2023-04-21T00:08:50.599Z,100332.81
2023-04-21T00:11:17.666Z,100332.25
2023-04-21T00:13:45.044Z,100326.66
2023-04-21T00:16:12.399Z,100332.66
2023-04-21T00:18:39.369Z,100327.84
2023-04-21T00:21:06.463Z,100322.97
2023-04-21T00:23:33.481Z,100322.97
2023-04-21T00:26:03.160Z,100326.47
2023-04-21T00:28:30.302Z,100324.91
2023-04-21T00:30:57.400Z,100323.81
2023-04-21T00:33:24.491Z,100330.62
2023-04-21T00:35:51.607Z,100317.47
2023-04-21T00:38:18.489Z,100322.81
2023-04-21T00:40:45.560Z,100326.19
2023-04-21T00:43:12.431Z,100327.00
2023-04-21T00:45:39.350Z,100325.50
2023-04-21T00:48:06.570Z,100326.53
2023-04-21T00:50:34.061Z,100325.63
2023-04-21T00:53:01.088Z,100322.13
2023-04-21T00:55:29.197Z,100322.00
2023-04-21T00:57:56.820Z,100325.63
2023-04-21T01:00:23.873Z,100322.06
2023-04-21T01:02:51.243Z,100327.97
2023-04-21T01:05:18.560Z,100324.09
2023-04-21T01:07:46.060Z,100325.69
2023-04-21T01:10:13.014Z,100323.19
2023-04-21T01:12:45.110Z,100319.72
2023-04-21T01:15:17.585Z,100319.56
2023-04-21T01:17:45.584Z,100324.66
2023-04-21T01:20:14.710Z,100313.19
2023-04-21T01:22:44.776Z,100315.00
2023-04-21T01:25:11.768Z,100314.06
2023-04-21T01:27:38.722Z,100316.81
2023-04-21T01:30:07.681Z,100313.06
2023-04-21T01:32:34.667Z,100313.41
2023-04-21T01:35:02.040Z,100308.19
2023-04-21T01:37:31.581Z,100301.19
2023-04-21T01:40:00.707Z,100308.09
2023-04-21T01:42:29.655Z,100315.37
2023-04-21T01:44:57.173Z,100304.75
2023-04-21T01:47:25.694Z,100316.19
2023-04-21T01:49:53.319Z,100309.31
2023-04-21T01:52:20.738Z,100307.63
2023-04-21T01:54:47.934Z,100309.31
2023-04-21T01:57:15.593Z,100312.09
2023-04-21T01:59:42.634Z,100311.44
2023-04-21T02:02:10.295Z,100317.56
2023-04-21T02:04:37.543Z,100317.78
2023-04-21T02:07:04.531Z,100319.38
2023-04-21T02:09:32.327Z,100319.97
2023-04-21T02:11:59.289Z,100311.84
2023-04-21T02:14:26.502Z,100312.59
2023-04-21T02:16:53.614Z,100322.56
2023-04-21T02:19:20.893Z,100312.00
2023-04-21T02:21:48.106Z,100314.19
2023-04-21T02:24:15.030Z,100316.53
2023-04-21T02:26:41.929Z,100321.78
2023-04-21T02:29:08.867Z,100314.69
2023-04-21T02:31:46.119Z,100323.41
2023-04-21T02:34:21.638Z,100319.84
2023-04-21T02:36:48.820Z,100317.31
2023-04-21T02:39:15.677Z,100321.84
2023-04-21T02:41:42.603Z,100314.00
2023-04-21T02:44:09.544Z,100313.88
2023-04-21T02:46:36.470Z,100317.38
2023-04-21T02:49:03.483Z,100315.69
2023-04-21T02:51:30.382Z,100315.63
2023-04-21T02:53:57.653Z,100312.19
2023-04-21T02:56:24.579Z,100321.78
2023-04-21T02:58:51.463Z,100319.13
2023-04-21T03:01:18.538Z,100313.72
2023-04-21T03:03:46.391Z,100319.19
2023-04-21T03:06:13.310Z,100313.81
2023-04-21T03:08:40.332Z,100313.00
2023-04-21T03:11:07.159Z,100319.47
2023-04-21T03:13:34.087Z,100311.34
2023-04-21T03:16:01.166Z,100313.06
2023-04-21T03:18:28.438Z,100319.13
2023-04-21T03:21:00.354Z,100314.94
2023-04-21T03:23:27.233Z,100313.12
2023-04-21T03:25:54.217Z,100321.87
2023-04-21T03:28:21.169Z,100314.03
2023-04-21T03:30:48.092Z,100318.28
2023-04-21T03:33:15.069Z,100323.53
2023-04-21T03:35:41.981Z,100325.28
2023-04-21T03:38:08.943Z,100326.19
2023-04-21T03:40:35.861Z,100323.62
2023-04-21T03:43:02.823Z,100332.22
2023-04-21T03:45:29.713Z,100323.44
2023-04-21T03:47:57.193Z,100330.47
2023-04-21T03:50:24.252Z,100331.63
2023-04-21T03:52:51.173Z,100330.47
2023-04-21T03:55:18.151Z,100326.91
2023-04-21T03:57:45.126Z,100322.75
2023-04-21T04:00:13.100Z,100329.56
2023-04-21T04:02:40.908Z,100319.97
2023-04-21T04:05:08.725Z,100330.72
2023-04-21T04:07:35.886Z,100329.84
2023-04-21T04:10:02.923Z,100331.47
2023-04-21T04:12:30.092Z,100329.69
2023-04-21T04:14:57.028Z,100336.59
2023-04-21T04:17:24.016Z,100337.53
2023-04-21T04:19:50.983Z,100338.19
2023-04-21T04:22:17.876Z,100337.59
2023-04-21T04:24:45.363Z,100335.00
2023-04-21T04:27:14.378Z,100330.72
2023-04-21T04:29:41.499Z,100339.22
2023-04-21T04:32:11.324Z,100337.41
2023-04-21T04:34:38.434Z,100339.22
2023-04-21T04:37:05.391Z,100344.53
2023-04-21T04:39:32.692Z,100345.19
2023-04-21T04:41:59.982Z,100346.06
2023-04-21T04:44:27.027Z,100351.34
2023-04-21T04:46:54.492Z,100355.16
2023-04-21T04:49:23.581Z,100362.09
2023-04-21T04:51:51.198Z,100347.22
2023-04-21T04:54:18.595Z,100354.09
2023-04-21T04:56:46.280Z,100360.38
2023-04-21T04:59:13.271Z,100355.72
2023-04-21T05:01:42.155Z,100359.25
2023-04-21T05:04:09.492Z,100363.53
2023-04-21T05:06:36.620Z,100365.25
2023-04-21T05:09:05.179Z,100369.97
2023-04-21T05:11:32.281Z,100367.44
2023-04-21T05:13:59.607Z,100369.81
2023-04-21T05:16:26.705Z,100368.81
2023-04-21T05:18:54.327Z,100369.19
2023-04-21T05:21:28.949Z,100373.41
2023-04-21T05:23:57.470Z,100370.72
2023-04-21T05:26:25.997Z,100372.13
2023-04-21T05:28:53.385Z,100374.19
2023-04-21T05:31:20.439Z,100370.88
2023-04-21T05:33:47.383Z,100372.19
2023-04-21T05:36:14.391Z,100375.84
2023-04-21T05:38:41.296Z,100381.22
2023-04-21T05:41:08.711Z,100371.97
2023-04-21T05:43:35.742Z,100375.59
2023-04-21T05:46:04.199Z,100378.69
2023-04-21T05:48:31.272Z,100379.56
2023-04-21T05:50:58.298Z,100374.09
2023-04-21T05:53:25.372Z,100379.84
2023-04-21T05:55:52.422Z,100374.25
2023-04-21T05:58:19.422Z,100381.88
2023-04-21T06:00:48.954Z,100385.03
2023-04-21T06:03:16.505Z,100390.81
2023-04-21T06:05:43.676Z,100388.00
2023-04-21T06:08:10.618Z,100390.78
2023-04-21T06:10:37.795Z,100383.81
2023-04-21T06:13:04.740Z,100383.00
2023-04-21T06:15:31.732Z,100377.16
2023-04-21T06:17:58.853Z,100381.75
2023-04-21T06:20:29.087Z,100378.66
2023-04-21T06:22:58.445Z,100379.87
2023-04-21T06:25:25.481Z,100377.72
2023-04-21T06:27:52.708Z,100375.94
2023-04-21T06:30:19.685Z,100369.41
2023-04-21T06:32:47.999Z,100367.66
2023-04-21T06:35:15.533Z,100375.47
2023-04-21T06:37:42.535Z,100373.84
2023-04-21T06:40:10.017Z,100377.78
2023-04-21T06:42:36.988Z,100373.84
2023-04-21T06:45:04.260Z,100371.44
2023-04-21T06:47:31.291Z,100374.59
2023-04-21T06:49:58.248Z,100367.59
2023-04-21T06:52:25.241Z,100368.91
2023-04-21T06:54:52.338Z,100352.47
2023-04-21T06:57:19.438Z,100360.34
2023-04-21T06:59:46.398Z,100358.03
2023-04-21T07:02:13.331Z,100353.00
2023-04-21T07:04:40.419Z,100361.16
2023-04-21T07:07:07.497Z,100368.47
2023-04-21T07:09:34.528Z,100364.06
2023-04-21T07:12:02.950Z,100371.69
2023-04-21T07:14:30.207Z,100366.03
2023-04-21T07:16:57.654Z,100368.84
2023-04-21T07:19:24.670Z,100378.56
2023-04-21T07:21:51.678Z,100377.03
2023-04-21T07:24:18.715Z,100377.44
2023-04-21T07:26:45.783Z,100385.06
2023-04-21T07:29:18.914Z,100375.66
2023-04-21T07:31:48.498Z,100370.84
2023-04-21T07:34:17.624Z,100365.59
2023-04-21T07:36:47.223Z,100374.94
2023-04-21T07:39:14.283Z,100372.72
2023-04-21T07:41:41.247Z,100371.94
2023-04-21T07:44:08.259Z,100371.59
2023-04-21T07:46:35.332Z,100366.56
2023-04-21T07:49:17.985Z,100380.63
2023-04-21T07:51:45.300Z,100373.50
2023-04-21T07:54:12.975Z,100372.37
2023-04-21T07:56:40.413Z,100368.75
2023-04-21T07:59:07.557Z,100373.03
2023-04-21T08:01:34.888Z,100368.47
2023-04-21T08:04:02.066Z,100369.97
2023-04-21T08:06:32.238Z,100370.41
2023-04-21T08:09:00.021Z,100366.75
2023-04-21T08:11:28.798Z,100367.62
2023-04-21T08:13:55.804Z,100361.84
2023-04-21T08:16:22.903Z,100355.81
2023-04-21T08:18:50.023Z,100363.91
2023-04-21T08:21:17.023Z,100373.13
2023-04-21T08:23:44.049Z,100352.72
2023-04-21T08:26:12.590Z,100360.62
2023-04-21T08:28:39.930Z,100355.22
2023-04-21T08:31:07.020Z,100354.06
2023-04-21T08:33:34.114Z,100359.41
2023-04-21T08:36:07.500Z,100353.34
2023-04-21T08:38:39.722Z,100352.75
2023-04-21T08:41:08.669Z,100358.38
2023-04-21T08:43:35.650Z,100356.78
2023-04-21T08:46:07.281Z,100352.53
2023-04-21T08:48:38.638Z,100355.34
2023-04-21T08:51:12.595Z,100354.81
2023-04-21T08:53:41.919Z,100355.50
2023-04-21T08:56:11.627Z,100355.41
2023-04-21T08:58:39.187Z,100345.53
2023-04-21T09:01:06.530Z,100350.91
2023-04-21T09:03:33.769Z,100354.31
2023-04-21T09:06:03.455Z,100346.22
2023-04-21T09:08:31.301Z,100354.34
2023-04-21T09:11:00.098Z,100343.03
2023-04-21T09:13:45.274Z,100351.66
2023-04-21T09:16:21.781Z,100344.44
2023-04-21T09:18:50.364Z,100344.63
2023-04-21T09:21:19.311Z,100334.78
2023-04-21T09:23:51.114Z,100332.97
2023-04-21T09:26:19.802Z,100336.16
2023-04-21T09:28:49.051Z,100324.81
2023-04-21T09:31:21.780Z,100326.69
2023-04-21T09:34:00.440Z,100321.94
2023-04-21T09:36:32.286Z,100315.66
2023-04-21T09:41:33.656Z,100306.06
2023-04-21T09:44:05.110Z,100302.44
2023-04-21T09:46:37.164Z,100301.87
2023-04-21T09:49:08.804Z,100310.44
2023-04-21T09:56:55.113Z,100298.25
2023-04-21T09:59:29.644Z,100289.59
2023-04-21T10:02:00.298Z,100289.56
2023-04-21T10:04:31.820Z,100286.44
2023-04-21T10:07:00.815Z,100288.97
2023-04-21T10:09:51.329Z,100275.69
2023-04-21T10:12:18.661Z,100270.13
2023-04-21T10:14:45.811Z,100282.78
2023-04-21T10:17:13.089Z,100280.00
2023-04-21T10:19:50.161Z,100279.88
2023-04-21T10:22:28.060Z,100270.78
2023-04-21T10:25:00.537Z,100274.81
2023-04-21T10:27:41.419Z,100270.00
2023-04-21T10:30:26.780Z,100271.31
2023-04-21T10:33:05.069Z,100269.66
2023-04-21T10:36:01.327Z,100273.69
2023-04-21T10:38:57.962Z,100263.97
2023-04-21T10:41:32.767Z,100259.84
2023-04-21T10:44:16.607Z,100259.44
2023-04-21T10:49:30.884Z,100256.69
2023-04-21T10:52:03.673Z,100247.63
2023-04-21T10:54:53.969Z,100251.28
2023-04-21T10:57:21.387Z,100235.75
2023-04-21T10:59:49.851Z,100253.59
2023-04-21T11:02:18.882Z,100239.22
2023-04-21T11:04:51.085Z,100243.63
2023-04-21T11:07:25.908Z,100238.28
2023-04-21T11:10:01.778Z,100230.72
2023-04-21T11:12:32.853Z,100228.09
2023-04-21T11:15:03.293Z,100242.09
2023-04-21T11:17:30.871Z,100231.62
2023-04-21T11:19:57.804Z,100229.16
2023-04-21T11:22:26.631Z,100227.53
2023-04-21T11:24:58.091Z,100224.09
2023-04-21T11:27:27.761Z,100222.06
2023-04-21T11:29:54.729Z,100226.38
2023-04-21T11:32:21.890Z,100220.06
2023-04-21T11:34:48.903Z,100223.34
2023-04-21T11:37:17.627Z,100222.47
2023-04-21T11:39:45.052Z,100223.03
2023-04-21T11:42:12.396Z,100217.28
2023-04-21T11:44:41.613Z,100230.81
2023-04-21T11:47:19.165Z,100218.03
2023-04-21T11:49:51.780Z,100225.66
2023-04-21T11:52:25.402Z,100220.31
2023-04-21T11:55:07.578Z,100214.59
2023-04-21T11:57:34.786Z,100219.06
2023-04-21T12:00:03.599Z,100212.69
2023-04-21T12:02:32.763Z,100222.78
2023-04-21T12:05:04.870Z,100218.09
2023-04-21T12:07:56.417Z,100229.28
2023-04-21T12:10:23.537Z,100223.16
2023-04-21T12:12:51.552Z,100229.81
2023-04-21T12:15:23.460Z,100225.84
2023-04-21T12:17:52.520Z,100227.37
2023-04-21T12:20:21.279Z,100227.37
2023-04-21T12:22:49.356Z,100231.69
2023-04-21T12:25:16.541Z,100223.66
2023-04-21T12:27:54.411Z,100223.37
2023-04-21T12:30:21.842Z,100222.91
2023-04-21T12:32:49.404Z,100225.03
2023-04-21T12:35:16.486Z,100224.50
2023-04-21T12:37:43.474Z,100214.78
2023-04-21T12:40:10.924Z,100214.25
2023-04-21T12:42:38.470Z,100212.00
2023-04-21T12:45:06.978Z,100212.53
2023-04-21T12:47:35.354Z,100227.16
2023-04-21T12:50:02.605Z,100214.25
2023-04-21T12:52:29.624Z,100220.06
2023-04-21T12:54:56.537Z,100196.25
2023-04-21T12:57:23.637Z,100218.62
2023-04-21T12:59:50.647Z,100211.62
2023-04-21T13:02:18.118Z,100200.50
2023-04-21T13:04:45.343Z,100207.53
2023-04-21T13:07:12.904Z,100204.47
2023-04-21T13:09:40.357Z,100199.56
2023-04-21T13:12:07.909Z,100207.44
2023-04-21T13:14:35.182Z,100198.75
2023-04-21T13:17:04.157Z,100192.59
2023-04-21T13:19:32.024Z,100185.72
2023-04-21T13:21:59.771Z,100194.50
2023-04-21T13:24:27.232Z,100179.25
2023-04-21T13:26:55.260Z,100179.50
2023-04-21T13:29:22.336Z,100188.69
2023-04-21T13:31:49.568Z,100173.00
2023-04-21T13:34:16.984Z,100171.88
2023-04-21T13:36:44.065Z,100170.16
2023-04-21T13:39:11.516Z,100171.19
2023-04-21T13:41:38.786Z,100167.22
2023-04-21T13:44:05.970Z,100153.97
2023-04-21T13:46:34.020Z,100170.97
2023-04-21T13:49:01.374Z,100167.72
2023-04-21T13:51:31.278Z,100175.78
2023-04-21T13:53:58.820Z,100163.47
2023-04-21T13:56:26.144Z,100154.22
2023-04-21T13:58:53.843Z,100165.53
2023-04-21T14:01:21.790Z,100157.19
2023-04-21T14:03:49.431Z,100155.22
2023-04-21T14:06:16.804Z,100147.00
2023-04-21T14:08:43.809Z,100153.81
2023-04-21T14:11:10.810Z,100151.91
2023-04-21T14:13:45.464Z,100140.06
2023-04-21T14:16:19.316Z,100136.97
2023-04-21T14:18:47.482Z,100145.97
2023-04-21T14:21:14.511Z,100136.00
2023-04-21T14:23:41.516Z,100123.19
2023-04-21T14:26:08.593Z,100129.69
2023-04-21T14:28:35.899Z,100126.53
2023-04-21T14:31:03.016Z,100123.38
2023-04-21T14:33:30.315Z,100118.50
2023-04-21T14:35:57.316Z,100116.03
2023-04-21T14:38:24.703Z,100117.66
2023-04-21T14:40:54.752Z,100116.75
2023-04-21T14:43:22.068Z,100110.31
2023-04-21T14:45:49.214Z,100105.81
2023-04-21T14:48:16.732Z,100110.00
2023-04-21T14:50:44.188Z,100115.78
2023-04-21T14:53:11.494Z,100100.94
2023-04-21T14:55:38.422Z,100114.06
2023-04-21T14:58:05.375Z,100106.22
2023-04-21T15:00:32.966Z,100107.34
2023-04-21T15:03:00.171Z,100112.03
2023-04-21T15:05:27.304Z,100100.91
2023-04-21T15:07:54.294Z,100109.28
2023-04-21T15:10:21.301Z,100116.16
2023-04-21T15:12:48.409Z,100101.66
2023-04-21T15:15:15.347Z,100113.88
2023-04-21T15:17:42.323Z,100108.47
2023-04-21T15:20:10.461Z,100106.72
2023-04-21T15:22:37.834Z,100104.34
2023-04-21T15:25:05.186Z,100094.09
2023-04-21T15:27:32.116Z,100099.66
2023-04-21T15:29:59.088Z,100103.16
2023-04-21T15:32:26.566Z,100100.78
2023-04-21T15:34:53.644Z,100098.78
2023-04-21T15:37:24.248Z,100101.03
2023-04-21T15:39:52.532Z,100097.56
2023-04-21T15:42:19.580Z,100100.53
2023-04-21T15:44:47.204Z,100098.22
2023-04-21T15:47:16.690Z,100087.84
2023-04-21T15:49:43.706Z,100092.44
2023-04-21T15:52:11.344Z,100093.34
2023-04-21T15:54:38.840Z,100083.69
2023-04-21T15:57:06.467Z,100087.47
2023-04-21T15:59:33.438Z,100082.66
2023-04-21T16:02:00.551Z,100084.25
2023-04-21T16:04:28.058Z,100086.53
2023-04-21T16:06:55.180Z,100089.41
2023-04-21T16:09:22.716Z,100084.59
2023-04-21T16:11:52.572Z,100083.16
2023-04-21T16:14:19.700Z,100080.13
2023-04-21T16:16:46.860Z,100077.75
2023-04-21T16:19:14.029Z,100080.19
2023-04-21T16:21:42.267Z,100079.84
2023-04-21T16:24:09.374Z,100080.19
2023-04-21T16:26:36.978Z,100075.75
2023-04-21T16:29:04.161Z,100084.87
2023-04-21T16:31:31.862Z,100077.53
2023-04-21T16:34:00.466Z,100072.78
2023-04-21T16:36:28.695Z,100081.06
2023-04-21T16:38:56.348Z,100083.69
2023-04-21T16:41:23.819Z,100079.72
2023-04-21T16:43:51.016Z,100084.09
2023-04-21T16:46:18.474Z,100080.34
2023-04-21T16:48:45.710Z,100083.81
2023-04-21T16:51:12.833Z,100076.47
2023-04-21T16:53:40.447Z,100078.88
2023-04-21T16:56:07.761Z,100080.13
2023-04-21T16:58:34.806Z,100086.38
2023-04-21T17:01:01.889Z,100084.50
2023-04-21T17:03:29.505Z,100082.84
2023-04-21T17:05:56.559Z,100084.06
2023-04-21T17:08:23.533Z,100088.19
2023-04-21T17:10:50.681Z,100084.41
2023-04-21T17:13:17.655Z,100088.56
2023-04-21T17:15:44.614Z,100089.19
2023-04-21T17:18:11.729Z,100094.41
2023-04-21T17:20:39.065Z,100085.25
2023-04-21T17:23:06.291Z,100086.38
2023-04-21T17:25:33.330Z,100085.53
2023-04-21T17:28:00.313Z,100095.16
2023-04-21T17:30:27.278Z,100089.38
2023-04-21T17:33:04.228Z,100094.91
2023-04-21T17:35:46.054Z,100091.94
2023-04-21T17:38:19.352Z,100087.47
2023-04-21T17:40:46.268Z,100097.22
2023-04-21T17:43:13.431Z,100093.81
2023-04-21T17:45:40.646Z,100094.13
2023-04-21T17:48:07.709Z,100093.44
2023-04-21T17:50:34.668Z,100099.78
2023-04-21T17:53:01.718Z,100102.91
2023-04-21T17:55:28.738Z,100114.84
2023-04-21T17:57:55.709Z,100106.34
2023-04-21T18:00:22.629Z,100112.75
2023-04-21T18:02:49.533Z,100110.66
2023-04-21T18:05:17.349Z,100114.53
2023-04-21T18:07:44.521Z,100118.50
2023-04-21T18:10:11.617Z,100113.56
2023-04-21T18:12:38.562Z,100117.31
2023-04-21T18:15:05.959Z,100129.84
2023-04-21T18:17:32.904Z,100122.41
2023-04-21T18:19:59.822Z,100128.28
2023-04-21T18:22:27.028Z,100129.38
2023-04-21T18:24:54.202Z,100134.19
2023-04-21T18:27:21.311Z,100130.28
2023-04-21T18:29:48.250Z,100135.19
2023-04-21T18:32:15.195Z,100133.78
2023-04-21T18:34:42.325Z,100137.97
2023-04-21T18:37:09.386Z,100141.84
2023-04-21T18:39:36.537Z,100142.50
2023-04-21T18:42:03.728Z,100152.44
2023-04-21T18:44:30.799Z,100147.81
2023-04-21T18:46:58.563Z,100142.56
2023-04-21T18:49:25.545Z,100151.12
2023-04-21T18:51:52.541Z,100141.81
2023-04-21T18:54:19.403Z,100148.13
2023-04-21T18:56:46.854Z,100145.69
2023-04-21T18:59:13.925Z,100151.06
2023-04-21T19:01:41.877Z,100151.59
2023-04-21T19:04:11.857Z,100148.44
2023-04-21T19:06:38.872Z,100155.06
2023-04-21T19:09:05.819Z,100154.25
2023-04-21T19:11:33.673Z,100152.25
2023-04-21T19:14:00.670Z,100153.75
2023-04-21T19:16:28.599Z,100157.25
2023-04-21T19:18:55.641Z,100155.66
2023-04-21T19:21:22.652Z,100153.84
2023-04-21T19:23:49.629Z,100154.03
2023-04-21T19:26:16.709Z,100155.53
2023-04-21T19:28:44.133Z,100159.13
2023-04-21T19:31:11.284Z,100160.47
2023-04-21T19:33:38.272Z,100159.09
2023-04-21T19:36:05.861Z,100161.50
2023-04-21T19:38:33.754Z,100162.44
2023-04-21T19:41:00.730Z,100155.44
2023-04-21T19:43:27.671Z,100157.97
2023-04-21T19:45:54.726Z,100156.59
2023-04-21T19:48:21.867Z,100158.63
2023-04-21T19:50:48.819Z,100159.59
2023-04-21T19:53:15.933Z,100155.97
2023-04-21T19:55:43.824Z,100157.00
2023-04-21T19:58:10.805Z,100158.09
2023-04-21T20:00:37.976Z,100154.25
2023-04-21T20:03:07.216Z,100151.84
2023-04-21T20:05:34.338Z,100154.97
2023-04-21T20:08:01.497Z,100161.97
2023-04-21T20:10:28.448Z,100154.22
2023-04-21T20:12:55.354Z,100163.25
2023-04-21T20:15:22.822Z,100165.13
2023-04-21T20:17:50.243Z,100161.00
2023-04-21T20:20:17.784Z,100167.84
2023-04-21T20:22:44.898Z,100174.56
2023-04-21T20:25:13.079Z,100175.75
2023-04-21T20:27:40.283Z,100173.00
2023-04-21T20:30:08.215Z,100175.22
2023-04-21T20:32:35.331Z,100168.50
2023-04-21T20:35:02.449Z,100173.84
2023-04-21T20:37:29.890Z,100178.28
2023-04-21T20:39:57.394Z,100177.38
2023-04-21T20:42:24.355Z,100177.38
2023-04-21T20:44:51.376Z,100184.50
2023-04-21T20:47:18.405Z,100182.75
2023-04-21T20:49:47.538Z,100178.28
2023-04-21T20:52:15.468Z,100179.41
2023-04-21T20:54:42.488Z,100183.19
2023-04-21T20:57:10.488Z,100182.09
2023-04-21T20:59:37.593Z,100181.00
2023-04-21T21:02:05.219Z,100180.16
2023-04-21T21:04:32.351Z,100186.75
2023-04-21T21:06:59.814Z,100189.78
2023-04-21T21:09:26.776Z,100185.28
2023-04-21T21:11:53.866Z,100186.91
2023-04-21T21:14:20.755Z,100185.44
2023-04-21T21:16:47.770Z,100187.38
2023-04-21T21:19:15.076Z,100192.72
2023-04-21T21:21:42.110Z,100191.44
2023-04-21T21:24:09.060Z,100192.06
2023-04-21T21:26:36.024Z,100193.22
2023-04-21T21:29:03.321Z,100186.78
2023-04-21T21:31:30.256Z,100191.25
2023-04-21T21:33:58.412Z,100198.75
2023-04-21T21:36:25.556Z,100200.59
2023-04-21T21:38:52.461Z,100198.56
2023-04-21T21:41:19.908Z,100200.38
2023-04-21T21:43:47.069Z,100205.03
2023-04-21T21:46:14.058Z,100202.06
2023-04-21T21:48:42.742Z,100201.59
2023-04-21T21:51:09.704Z,100203.53
2023-04-21T21:53:36.636Z,100206.37
2023-04-21T21:56:03.637Z,100208.88
2023-04-21T21:58:30.992Z,100219.47
2023-04-21T22:00:58.229Z,100210.66
2023-04-21T22:03:25.826Z,100217.09
2023-04-21T22:05:53.012Z,100220.88
2023-04-21T22:08:19.963Z,100216.56
2023-04-21T22:10:46.945Z,100214.94
2023-04-21T22:13:13.892Z,100224.53
2023-04-21T22:15:41.492Z,100210.25
2023-04-21T22:18:09.982Z,100218.22
2023-04-21T22:20:37.122Z,100217.69
2023-04-21T22:23:04.346Z,100218.56
2023-04-21T22:25:31.453Z,100218.31
2023-04-21T22:27:58.409Z,100219.03
2023-04-21T22:30:26.072Z,100210.34
2023-04-21T22:32:53.014Z,100211.38
2023-04-21T22:35:20.192Z,100214.94
2023-04-21T22:37:47.083Z,100202.06
2023-04-21T22:40:14.163Z,100212.34
2023-04-21T22:42:41.212Z,100212.12
2023-04-21T22:45:08.683Z,100209.41
2023-04-21T22:47:35.914Z,100205.12
2023-04-21T22:50:04.574Z,100212.50
2023-04-21T22:52:31.579Z,100215.00
2023-04-21T22:54:58.560Z,100211.78
2023-04-21T22:57:25.943Z,100213.87
2023-04-21T22:59:52.981Z,100221.88
2023-04-21T23:02:20.014Z,100218.34
2023-04-21T23:04:46.983Z,100228.19
2023-04-21T23:07:13.926Z,100223.59
2023-04-21T23:09:40.971Z,100217.59
2023-04-21T23:12:08.549Z,100227.88
2023-04-21T23:14:35.578Z,100224.03
2023-04-21T23:17:02.566Z,100231.47
2023-04-21T23:19:29.702Z,100218.66
2023-04-21T23:21:56.733Z,100223.06
2023-04-21T23:24:23.589Z,100228.09
2023-04-21T23:26:50.746Z,100220.13
2023-04-21T23:29:17.858Z,100223.63
2023-04-21T23:31:45.138Z,100228.81
2023-04-21T23:34:12.125Z,100211.06
2023-04-21T23:36:39.013Z,100217.66
2023-04-21T23:39:06.435Z,100206.19
2023-04-21T23:41:33.506Z,100211.47
2023-04-21T23:44:00.521Z,100203.25
2023-04-21T23:46:27.554Z,100208.75
2023-04-21T23:48:54.733Z,100212.00
2023-04-21T23:51:22.248Z,100199.31
2023-04-21T23:53:49.358Z,100213.53
2023-04-21T23:56:16.585Z,100207.63
2023-04-21T23:58:43.563Z,100206.75
